createdAt,value
2022-11-19T00:01:23.655Z,59.09
2022-11-19T00:03:57.213Z,59.05
2022-11-19T00:06:31.077Z,59.06
2022-11-19T00:09:06.117Z,59.00
2022-11-19T00:11:57.242Z,58.86
2022-11-19T00:14:31.086Z,59.05
2022-11-19T00:17:04.437Z,59.06
2022-11-19T00:19:37.892Z,59.02
2022-11-19T00:22:11.621Z,59.19
2022-11-19T00:24:45.294Z,59.21
2022-11-19T00:27:18.892Z,59.31
2022-11-19T00:29:52.104Z,59.42
2022-11-19T00:32:25.575Z,59.36
2022-11-19T00:34:59.228Z,59.29
2022-11-19T00:37:32.958Z,59.24
2022-11-19T00:40:08.409Z,59.04
2022-11-19T00:43:01.971Z,59.13
2022-11-19T00:45:35.758Z,59.04
2022-11-19T00:48:10.036Z,59.03
2022-11-19T00:50:43.705Z,58.94
2022-11-19T00:53:17.349Z,58.82
2022-11-19T00:55:50.439Z,58.87
2022-11-19T00:58:24.555Z,58.78
2022-11-19T01:00:58.206Z,58.87
2022-11-19T01:03:32.155Z,58.85
2022-11-19T01:06:06.276Z,58.79
2022-11-19T01:08:42.610Z,58.88
2022-11-19T01:11:18.257Z,58.95
2022-11-19T01:13:52.623Z,58.99
2022-11-19T01:16:28.695Z,58.97
2022-11-19T01:19:02.798Z,58.89
2022-11-19T01:21:37.477Z,59.02
2022-11-19T01:24:11.354Z,59.01
2022-11-19T01:26:46.190Z,58.96
2022-11-19T01:29:20.301Z,58.94
2022-11-19T01:31:54.060Z,58.89
2022-11-19T01:34:27.558Z,58.84
2022-11-19T01:37:01.488Z,58.84
2022-11-19T01:39:34.986Z,58.77
2022-11-19T01:42:29.406Z,58.78
2022-11-19T01:45:07.181Z,58.74
2022-11-19T01:47:40.575Z,58.76
2022-11-19T01:50:14.201Z,58.71
2022-11-19T01:52:47.666Z,58.70
2022-11-19T01:55:22.709Z,58.64
2022-11-19T01:58:00.864Z,58.62
2022-11-19T02:00:34.343Z,58.66
2022-11-19T02:03:08.010Z,58.47
2022-11-19T02:05:43.789Z,58.52
2022-11-19T02:08:38.962Z,58.64
2022-11-19T02:11:36.952Z,58.51
2022-11-19T02:14:26.020Z,58.54
2022-11-19T02:17:11.900Z,58.53
2022-11-19T02:20:16.393Z,58.50
2022-11-19T02:23:19.752Z,58.52
2022-11-19T02:26:16.700Z,58.40
2022-11-19T02:28:54.198Z,58.51
2022-11-19T02:31:32.912Z,58.66
2022-11-19T02:34:13.033Z,58.56
2022-11-19T02:36:52.956Z,58.55
2022-11-19T02:39:31.828Z,58.43
2022-11-19T02:42:14.911Z,58.47
2022-11-19T02:45:02.852Z,58.44
2022-11-19T02:47:41.148Z,58.41
2022-11-19T02:50:18.135Z,58.55
2022-11-19T02:52:53.052Z,58.51
2022-11-19T02:55:26.786Z,58.56
2022-11-19T02:58:06.557Z,58.51
2022-11-19T03:01:03.701Z,58.63
2022-11-19T03:03:56.531Z,58.53
2022-11-19T03:06:33.151Z,58.71
2022-11-19T03:09:07.859Z,58.85
2022-11-19T03:11:42.422Z,58.78
2022-11-19T03:14:40.903Z,58.65
2022-11-19T03:17:21.659Z,58.60
2022-11-19T03:20:03.450Z,58.57
2022-11-19T03:22:43.272Z,58.51
2022-11-19T03:25:22.021Z,58.43
2022-11-19T03:27:59.674Z,58.42
2022-11-19T03:30:33.926Z,58.45
2022-11-19T03:33:11.949Z,58.36
2022-11-19T03:35:51.991Z,58.42
2022-11-19T03:38:29.248Z,58.45
2022-11-19T03:41:05.758Z,58.59
2022-11-19T03:43:43.301Z,58.63
2022-11-19T03:46:19.431Z,58.82
2022-11-19T03:48:56.710Z,58.88
2022-11-19T03:51:38.933Z,58.91
2022-11-19T03:54:12.999Z,58.95
2022-11-19T03:56:48.471Z,59.03
2022-11-19T03:59:26.721Z,59.23
2022-11-19T04:02:06.718Z,59.24
2022-11-19T04:04:40.750Z,59.38
2022-11-19T04:07:16.434Z,59.60
2022-11-19T04:09:50.139Z,59.78
2022-11-19T04:12:25.179Z,59.97
2022-11-19T04:14:58.650Z,60.18
2022-11-19T04:17:32.065Z,60.41
2022-11-19T04:20:05.818Z,60.71
2022-11-19T04:22:40.048Z,60.67
2022-11-19T04:25:14.133Z,60.73
2022-11-19T04:27:48.701Z,60.94
2022-11-19T04:30:23.089Z,61.26
2022-11-19T04:32:56.923Z,61.40
2022-11-19T04:35:30.721Z,61.45
2022-11-19T04:38:04.501Z,61.46
2022-11-19T04:40:39.456Z,61.63
2022-11-19T04:43:12.834Z,61.54
2022-11-19T04:45:46.384Z,61.71
2022-11-19T04:48:19.811Z,61.63
2022-11-19T04:50:53.610Z,61.50
2022-11-19T04:53:27.123Z,61.50
2022-11-19T04:56:00.433Z,61.66
2022-11-19T04:58:34.100Z,61.54
2022-11-19T05:01:08.007Z,61.74
2022-11-19T05:03:41.523Z,61.70
2022-11-19T05:06:15.004Z,61.72
2022-11-19T05:08:48.360Z,61.84
2022-11-19T05:11:22.369Z,61.75
2022-11-19T05:13:56.388Z,61.79
2022-11-19T05:16:30.243Z,61.81
2022-11-19T05:19:03.940Z,61.87
2022-11-19T05:21:37.794Z,61.82
2022-11-19T05:24:12.675Z,61.94
2022-11-19T05:26:46.121Z,62.02
2022-11-19T05:29:19.791Z,62.16
2022-11-19T05:31:53.563Z,62.26
2022-11-19T05:34:27.080Z,62.39
2022-11-19T05:37:00.316Z,62.44
2022-11-19T05:39:33.931Z,62.42
2022-11-19T05:42:07.652Z,62.54
2022-11-19T05:44:41.242Z,62.49
2022-11-19T05:47:16.517Z,62.47
2022-11-19T05:49:50.221Z,62.53
2022-11-19T05:52:23.728Z,62.53
2022-11-19T05:54:57.662Z,62.46
2022-11-19T05:57:30.879Z,62.37
2022-11-19T06:00:04.422Z,62.39
2022-11-19T06:02:46.658Z,62.41
2022-11-19T06:05:21.050Z,62.49
2022-11-19T06:07:54.424Z,62.60
2022-11-19T06:10:29.108Z,62.58
2022-11-19T06:13:02.648Z,62.69
2022-11-19T06:15:36.491Z,62.66
2022-11-19T06:18:09.972Z,62.58
2022-11-19T06:20:43.456Z,62.50
2022-11-19T06:23:16.969Z,62.52
2022-11-19T06:25:55.581Z,62.39
2022-11-19T06:28:29.228Z,62.31
2022-11-19T06:31:02.388Z,62.24
2022-11-19T06:33:36.201Z,62.11
2022-11-19T06:36:11.228Z,62.16
2022-11-19T06:38:45.165Z,62.25
2022-11-19T06:41:19.034Z,62.28
2022-11-19T06:43:52.851Z,62.26
2022-11-19T06:46:26.311Z,62.27
2022-11-19T06:48:59.616Z,62.31
2022-11-19T06:51:33.415Z,62.45
2022-11-19T06:54:06.913Z,62.49
2022-11-19T06:56:40.410Z,62.44
2022-11-19T06:59:14.207Z,62.68
2022-11-19T07:01:47.663Z,62.77
2022-11-19T07:04:21.094Z,62.80
2022-11-19T07:06:54.809Z,62.93
2022-11-19T07:09:28.731Z,62.68
2022-11-19T07:12:02.473Z,62.84
2022-11-19T07:14:36.033Z,63.00
2022-11-19T07:17:10.147Z,62.68
2022-11-19T07:19:43.784Z,62.77
2022-11-19T07:22:17.641Z,62.97
2022-11-19T07:24:51.080Z,62.97
2022-11-19T07:27:24.691Z,63.11
2022-11-19T07:29:58.562Z,63.13
2022-11-19T07:32:32.305Z,62.95
2022-11-19T07:35:05.975Z,63.04
2022-11-19T07:37:39.404Z,62.97
2022-11-19T07:40:17.116Z,62.94
2022-11-19T07:42:50.723Z,62.78
2022-11-19T07:45:25.222Z,62.91
2022-11-19T07:47:58.761Z,62.93
2022-11-19T07:50:32.241Z,62.73
2022-11-19T07:53:06.444Z,62.62
2022-11-19T07:55:40.272Z,62.39
2022-11-19T07:58:14.300Z,62.32
2022-11-19T08:00:47.900Z,62.53
2022-11-19T08:03:21.575Z,62.34
2022-11-19T08:05:55.266Z,62.16
2022-11-19T08:08:28.966Z,62.22
2022-11-19T08:11:06.961Z,62.25
2022-11-19T08:13:42.971Z,62.37
2022-11-19T08:16:38.381Z,62.24
2022-11-19T08:19:15.240Z,62.10
2022-11-19T08:21:50.048Z,62.10
2022-11-19T08:24:24.488Z,62.08
2022-11-19T08:26:58.039Z,62.19
2022-11-19T08:29:31.848Z,62.16
2022-11-19T08:32:05.947Z,61.44
2022-11-19T08:34:39.852Z,61.41
2022-11-19T08:37:13.946Z,61.12
2022-11-19T08:39:47.404Z,61.13
2022-11-19T08:42:38.621Z,60.99
2022-11-19T08:45:16.818Z,60.87
2022-11-19T08:47:54.273Z,61.02
2022-11-19T08:50:29.247Z,60.78
2022-11-19T08:53:04.236Z,60.92
2022-11-19T08:55:37.563Z,60.56
2022-11-19T08:58:13.117Z,59.60
2022-11-19T09:00:46.874Z,59.43
2022-11-19T09:03:20.554Z,59.56
2022-11-19T09:05:59.551Z,59.17
2022-11-19T09:08:33.269Z,59.04
2022-11-19T09:11:12.336Z,58.98
2022-11-19T09:13:46.255Z,58.63
2022-11-19T09:16:20.414Z,58.33
2022-11-19T09:18:53.643Z,57.95
2022-11-19T09:21:27.065Z,57.67
2022-11-19T09:24:00.735Z,57.85
2022-11-19T09:26:33.972Z,58.02
2022-11-19T09:29:07.898Z,58.04
2022-11-19T09:31:41.743Z,57.83
2022-11-19T09:34:15.031Z,57.25
2022-11-19T09:36:49.310Z,57.15
2022-11-19T09:39:23.020Z,57.24
2022-11-19T09:42:03.376Z,57.46
2022-11-19T09:44:52.100Z,57.11
2022-11-19T09:47:37.663Z,57.36
2022-11-19T09:50:19.334Z,57.31
2022-11-19T09:52:57.864Z,56.77
2022-11-19T09:55:34.660Z,56.61
2022-11-19T09:58:14.831Z,56.59
2022-11-19T10:00:48.851Z,57.29
2022-11-19T10:03:27.393Z,57.37
2022-11-19T10:06:22.438Z,57.49
2022-11-19T10:09:21.521Z,58.20
2022-11-19T10:12:06.950Z,56.66
2022-11-19T10:15:06.213Z,55.67
2022-11-19T10:17:52.309Z,54.99
2022-11-19T10:20:41.942Z,54.73
2022-11-19T10:23:19.992Z,54.84
2022-11-19T10:25:59.164Z,55.34
2022-11-19T10:28:37.962Z,56.03
2022-11-19T10:31:18.011Z,56.13
2022-11-19T10:33:55.291Z,56.03
2022-11-19T10:36:35.168Z,56.13
2022-11-19T10:39:16.813Z,57.31
2022-11-19T10:41:57.246Z,56.45
2022-11-19T10:44:41.690Z,55.91
2022-11-19T10:47:22.736Z,55.69
2022-11-19T10:49:57.721Z,55.60
2022-11-19T10:52:36.206Z,55.79
2022-11-19T10:55:25.542Z,55.72
2022-11-19T10:58:17.510Z,55.87
2022-11-19T11:00:54.980Z,55.64
2022-11-19T11:03:33.111Z,55.12
2022-11-19T11:06:10.422Z,55.55
2022-11-19T11:08:53.404Z,55.63
2022-11-19T11:11:46.232Z,55.77
2022-11-19T11:14:53.903Z,55.94
2022-11-19T11:17:30.368Z,56.30
2022-11-19T11:20:07.531Z,56.35
2022-11-19T11:22:40.860Z,56.41
2022-11-19T11:25:23.937Z,56.53
2022-11-19T11:28:09.595Z,56.80
2022-11-19T11:30:56.094Z,56.92
2022-11-19T11:33:37.097Z,56.58
2022-11-19T11:36:14.366Z,56.20
2022-11-19T11:38:50.629Z,56.35
2022-11-19T11:42:04.733Z,55.97
2022-11-19T11:44:24.914Z,55.93
2022-11-19T11:47:02.708Z,55.84
2022-11-19T11:49:39.056Z,55.58
2022-11-19T11:52:21.347Z,55.37
2022-11-19T11:55:03.448Z,54.97
2022-11-19T11:57:38.264Z,54.76
2022-11-19T12:00:38.128Z,54.87
2022-11-19T12:03:14.576Z,55.37
2022-11-19T12:05:58.591Z,55.72
2022-11-19T12:08:52.142Z,55.71
2022-11-19T12:11:52.301Z,55.33
2022-11-19T12:14:31.730Z,54.99
2022-11-19T12:17:31.183Z,54.54
2022-11-19T12:20:22.986Z,54.64
2022-11-19T12:23:11.936Z,54.66
2022-11-19T12:25:56.487Z,54.40
2022-11-19T12:28:48.386Z,54.42
2022-11-19T12:31:37.455Z,54.52
2022-11-19T12:34:36.152Z,54.35
2022-11-19T12:37:23.791Z,54.19
2022-11-19T12:40:03.262Z,54.41
2022-11-19T12:42:49.580Z,54.73
2022-11-19T12:45:37.199Z,54.89
2022-11-19T12:48:37.420Z,54.62
2022-11-19T12:51:21.065Z,54.48
2022-11-19T12:54:24.346Z,53.57
2022-11-19T12:57:19.400Z,53.05
2022-11-19T13:00:11.218Z,53.02
2022-11-19T13:02:55.356Z,52.02
2022-11-19T13:05:41.614Z,51.74
2022-11-19T13:08:23.131Z,51.30
2022-11-19T13:11:06.646Z,51.61
2022-11-19T13:13:45.761Z,51.23
2022-11-19T13:16:22.651Z,50.83
2022-11-19T13:19:07.846Z,51.14
2022-11-19T13:21:49.581Z,51.61
2022-11-19T13:24:30.835Z,51.59
2022-11-19T13:27:08.815Z,51.78
2022-11-19T13:29:47.517Z,52.02
2022-11-19T13:32:28.968Z,52.05
2022-11-19T13:35:12.725Z,52.28
2022-11-19T13:37:58.760Z,52.22
2022-11-19T13:40:38.870Z,52.63
2022-11-19T13:43:35.825Z,52.94
2022-11-19T13:46:21.541Z,53.09
2022-11-19T13:49:04.582Z,53.12
2022-11-19T13:51:41.842Z,53.28
2022-11-19T13:54:26.161Z,53.37
2022-11-19T13:57:01.506Z,53.30
2022-11-19T13:59:38.924Z,53.62
2022-11-19T14:02:50.912Z,53.84
2022-11-19T14:05:55.847Z,53.59
2022-11-19T14:08:42.678Z,53.51
2022-11-19T14:11:28.598Z,53.43
2022-11-19T14:14:39.003Z,53.44
2022-11-19T14:17:40.392Z,53.59
2022-11-19T14:20:53.476Z,53.83
2022-11-19T14:24:02.746Z,54.10
2022-11-19T14:27:18.823Z,54.25
2022-11-19T14:30:08.425Z,54.27
2022-11-19T14:32:48.047Z,54.56
2022-11-19T14:35:41.784Z,54.51
2022-11-19T14:38:37.358Z,54.69
2022-11-19T14:41:34.754Z,54.90
2022-11-19T14:44:22.547Z,54.97
2022-11-19T14:46:56.021Z,55.20
2022-11-19T14:49:39.643Z,55.52
2022-11-19T14:52:25.792Z,55.63
2022-11-19T14:55:02.252Z,55.79
2022-11-19T14:57:39.094Z,55.95
2022-11-19T15:00:34.003Z,55.97
2022-11-19T15:03:10.485Z,55.92
2022-11-19T15:05:47.066Z,56.06
2022-11-19T15:08:47.731Z,56.13
2022-11-19T15:11:22.382Z,56.46
2022-11-19T15:15:03.756Z,56.62
2022-11-19T15:17:38.388Z,56.89
2022-11-19T15:20:30.675Z,57.04
2022-11-19T15:23:13.908Z,56.91
2022-11-19T15:26:00.078Z,56.98
2022-11-19T15:28:47.541Z,57.06
2022-11-19T15:31:40.252Z,57.14
2022-11-19T15:34:49.544Z,57.25
2022-11-19T15:37:44.914Z,57.63
2022-11-19T15:40:23.481Z,57.48
2022-11-19T15:43:03.909Z,57.43
2022-11-19T15:45:46.848Z,57.37
2022-11-19T15:48:25.877Z,57.20
2022-11-19T15:51:00.430Z,57.16
2022-11-19T15:53:34.107Z,57.21
2022-11-19T15:56:14.786Z,57.36
2022-11-19T15:58:49.582Z,57.43
2022-11-19T16:01:24.344Z,57.48
2022-11-19T16:03:57.873Z,57.61
2022-11-19T16:06:32.434Z,57.73
2022-11-19T16:09:07.209Z,57.82
2022-11-19T16:11:59.308Z,57.97
2022-11-19T16:14:51.546Z,58.05
2022-11-19T16:17:43.055Z,58.04
2022-11-19T16:20:23.559Z,58.11
2022-11-19T16:23:04.047Z,58.14
2022-11-19T16:25:41.053Z,58.22
2022-11-19T16:28:17.559Z,58.28
2022-11-19T16:30:53.473Z,58.44
2022-11-19T16:33:29.130Z,58.37
2022-11-19T16:36:16.828Z,58.44
2022-11-19T16:38:53.400Z,58.59
2022-11-19T16:41:45.529Z,58.70
2022-11-19T16:44:23.121Z,58.76
2022-11-19T16:46:57.671Z,58.94
2022-11-19T16:49:42.670Z,58.88
2022-11-19T16:52:43.567Z,58.82
2022-11-19T16:55:44.408Z,58.82
2022-11-19T16:58:22.045Z,58.71
2022-11-19T17:01:00.032Z,58.80
2022-11-19T17:03:40.019Z,58.81
2022-11-19T17:06:26.347Z,58.77
2022-11-19T17:09:01.984Z,58.91
2022-11-19T17:12:10.435Z,59.02
2022-11-19T17:14:59.127Z,59.07
2022-11-19T17:17:43.856Z,59.03
2022-11-19T17:21:00.203Z,59.22
2022-11-19T17:23:36.566Z,59.23
2022-11-19T17:26:17.791Z,59.37
2022-11-19T17:28:54.445Z,59.32
2022-11-19T17:31:29.803Z,59.25
2022-11-19T17:34:14.452Z,59.42
2022-11-19T17:36:48.601Z,59.32
2022-11-19T17:39:25.353Z,59.50
2022-11-19T17:42:17.804Z,59.57
2022-11-19T17:44:52.005Z,59.66
2022-11-19T17:47:26.163Z,59.61
2022-11-19T17:50:00.526Z,59.71
2022-11-19T17:52:35.167Z,59.72
2022-11-19T17:55:19.479Z,59.76
2022-11-19T17:57:53.681Z,59.91
2022-11-19T18:00:27.628Z,59.76
2022-11-19T18:03:03.402Z,59.82
2022-11-19T18:05:39.684Z,59.73
2022-11-19T18:08:14.227Z,59.64
2022-11-19T18:10:49.626Z,59.81
2022-11-19T18:13:27.759Z,59.71
2022-11-19T18:16:02.283Z,59.70
2022-11-19T18:18:36.773Z,59.69
2022-11-19T18:21:14.920Z,59.57
2022-11-19T18:23:50.008Z,59.52
2022-11-19T18:26:25.168Z,59.55
2022-11-19T18:28:59.755Z,59.52
2022-11-19T18:31:34.294Z,59.58
2022-11-19T18:34:08.444Z,59.56
2022-11-19T18:36:43.641Z,59.52
2022-11-19T18:39:18.393Z,59.61
2022-11-19T18:41:52.437Z,59.79
2022-11-19T18:44:36.794Z,59.75
2022-11-19T18:47:13.018Z,59.74
2022-11-19T18:49:47.269Z,59.81
2022-11-19T18:52:21.629Z,59.67
2022-11-19T18:54:56.032Z,59.91
2022-11-19T18:57:30.144Z,59.99
2022-11-19T19:00:04.279Z,59.89
2022-11-19T19:02:40.076Z,59.80
2022-11-19T19:05:14.681Z,59.77
2022-11-19T19:07:48.845Z,59.88
2022-11-19T19:10:23.082Z,59.93
2022-11-19T19:12:57.704Z,59.83
2022-11-19T19:15:33.086Z,59.82
2022-11-19T19:18:08.073Z,59.84
2022-11-19T19:20:43.027Z,59.85
2022-11-19T19:23:17.884Z,59.93
2022-11-19T19:25:52.433Z,59.77
2022-11-19T19:28:27.813Z,59.69
2022-11-19T19:31:02.962Z,59.66
2022-11-19T19:33:37.480Z,59.67
2022-11-19T19:36:12.745Z,59.58
2022-11-19T19:38:48.257Z,59.68
2022-11-19T19:41:26.459Z,59.67
2022-11-19T19:44:04.311Z,59.66
2022-11-19T19:46:38.430Z,59.75
2022-11-19T19:49:12.222Z,59.73
2022-11-19T19:51:47.098Z,59.79
2022-11-19T19:54:21.985Z,59.69
2022-11-19T19:56:56.612Z,59.63
2022-11-19T19:59:30.739Z,59.53
2022-11-19T20:02:07.415Z,59.67
2022-11-19T20:04:41.813Z,59.77
2022-11-19T20:07:16.360Z,59.85
2022-11-19T20:09:50.817Z,59.66
2022-11-19T20:12:45.737Z,59.60
2022-11-19T20:15:21.112Z,59.52
2022-11-19T20:17:55.325Z,59.59
2022-11-19T20:20:30.294Z,59.69
2022-11-19T20:23:05.884Z,59.58
2022-11-19T20:25:40.795Z,59.56
2022-11-19T20:28:16.237Z,59.60
2022-11-19T20:30:51.794Z,59.61
2022-11-19T20:33:27.055Z,59.68
2022-11-19T20:36:01.753Z,59.71
2022-11-19T20:38:39.106Z,59.58
2022-11-19T20:41:29.545Z,59.51
2022-11-19T20:44:24.083Z,59.42
2022-11-19T20:47:00.691Z,59.37
2022-11-19T20:49:36.595Z,59.46
2022-11-19T20:52:11.668Z,59.48
2022-11-19T20:54:47.764Z,59.42
2022-11-19T20:57:22.511Z,59.39
2022-11-19T20:59:56.513Z,59.42
2022-11-19T21:02:31.835Z,59.38
2022-11-19T21:05:07.076Z,59.31
2022-11-19T21:07:41.185Z,59.32
2022-11-19T21:10:15.985Z,59.51
2022-11-19T21:13:03.478Z,59.58
2022-11-19T21:15:40.326Z,59.61
2022-11-19T21:18:14.711Z,59.67
2022-11-19T21:20:49.390Z,59.62
2022-11-19T21:23:23.596Z,59.68
2022-11-19T21:26:04.626Z,59.60
2022-11-19T21:28:38.718Z,59.66
2022-11-19T21:31:14.231Z,59.64
2022-11-19T21:33:49.499Z,59.61
2022-11-19T21:36:24.606Z,59.84
2022-11-19T21:38:58.474Z,59.83
2022-11-19T21:41:32.997Z,59.79
2022-11-19T21:44:09.798Z,59.86
2022-11-19T21:46:43.664Z,59.86
2022-11-19T21:49:17.979Z,59.86
2022-11-19T21:51:53.499Z,59.89
2022-11-19T21:54:27.023Z,59.83
2022-11-19T21:57:01.226Z,59.78
2022-11-19T21:59:34.484Z,59.78
2022-11-19T22:02:08.689Z,59.85
2022-11-19T22:04:42.104Z,59.90
2022-11-19T22:07:15.684Z,59.74
2022-11-19T22:09:49.515Z,59.75
2022-11-19T22:12:23.259Z,59.82
2022-11-19T22:14:56.623Z,59.87
2022-11-19T22:17:32.785Z,60.01
2022-11-19T22:20:08.292Z,59.99
2022-11-19T22:22:45.469Z,59.96
2022-11-19T22:25:19.489Z,59.91
2022-11-19T22:27:52.802Z,60.09
2022-11-19T22:30:26.922Z,59.98
2022-11-19T22:33:00.198Z,60.11
2022-11-19T22:35:33.987Z,60.06
2022-11-19T22:38:07.989Z,60.05
2022-11-19T22:40:41.761Z,60.11
2022-11-19T22:43:19.053Z,60.12
2022-11-19T22:45:56.250Z,60.13
2022-11-19T22:48:31.672Z,60.22
2022-11-19T22:51:08.790Z,60.39
2022-11-19T22:53:42.519Z,60.36
2022-11-19T22:56:19.209Z,60.42
2022-11-19T22:58:54.285Z,60.38
2022-11-19T23:01:29.238Z,60.46
2022-11-19T23:04:07.363Z,60.35
2022-11-19T23:06:41.004Z,60.40
2022-11-19T23:09:14.483Z,60.37
2022-11-19T23:12:06.023Z,60.32
2022-11-19T23:14:39.804Z,60.33
2022-11-19T23:17:13.595Z,60.37
2022-11-19T23:19:47.476Z,60.50
2022-11-19T23:22:21.568Z,60.54
2022-11-19T23:24:55.159Z,60.65
2022-11-19T23:27:28.500Z,60.65
2022-11-19T23:30:02.137Z,60.65
2022-11-19T23:32:35.561Z,60.55
2022-11-19T23:35:10.831Z,60.70
2022-11-19T23:37:44.734Z,60.69
2022-11-19T23:40:18.352Z,60.80
2022-11-19T23:42:52.289Z,60.78
2022-11-19T23:45:25.859Z,60.83
2022-11-19T23:48:00.266Z,60.85
2022-11-19T23:50:34.193Z,60.92
2022-11-19T23:53:07.843Z,60.94
2022-11-19T23:55:41.531Z,61.02
2022-11-19T23:58:15.109Z,61.17
